Time;durP1;ratioP1;P1;durP2;ratioP2;P2;SDS_P1;SDS_P2;PMS_P1;PMS_P2;Temp;Humidity;BMP_temperature;BMP_pressure;BME280_temperature;BME280_humidity;BME280_pressure;Samples;Min_cycle;Max_cycle;Signal;HPM_P1;HPM_P2
2022/01/05 00:00:45;;;;;;;;;26.25;26.00;;;;;3.16;100.00;100732.44;6214847;23;11514;-72
2022/01/05 00:03:41;;;;;;;;;16.00;16.00;;;;;3.15;100.00;100741.75;6196335;23;11492;-72
2022/01/05 00:06:36;;;;;;;;;20.75;19.00;;;;;3.17;100.00;100734.06;6215145;23;11483;-72
2022/01/05 00:09:33;;;;;;;;;29.75;29.25;;;;;3.14;100.00;100722.88;6214752;23;11595;-72
2022/01/05 00:12:28;;;;;;;;;22.50;22.00;;;;;3.28;100.00;100737.56;6214700;23;11502;-72
2022/01/05 00:15:24;;;;;;;;;24.00;24.00;;;;;3.32;100.00;100734.00;6216017;23;12200;-72
2022/01/05 00:18:19;;;;;;;;;17.50;17.50;;;;;3.32;100.00;100731.28;6213730;23;12197;-71
2022/01/05 00:21:15;;;;;;;;;17.75;17.75;;;;;3.23;100.00;100713.00;6214872;23;11598;-71
2022/01/05 00:24:10;;;;;;;;;18.75;18.75;;;;;3.23;100.00;100708.38;6214811;23;11590;-72
2022/01/05 00:27:06;;;;;;;;;20.00;19.50;;;;;3.26;100.00;100705.06;6214598;23;11488;-72
2022/01/05 00:30:03;;;;;;;;;22.50;21.75;;;;;3.39;100.00;100703.63;6214493;23;11458;-71
2022/01/05 00:32:59;;;;;;;;;18.75;18.75;;;;;3.42;100.00;100702.22;6213768;23;11589;-71
2022/01/05 00:35:54;;;;;;;;;24.25;24.25;;;;;3.38;100.00;100691.06;6194621;23;11599;-71
2022/01/05 00:38:50;;;;;;;;;19.75;19.75;;;;;3.34;100.00;100687.25;6214700;23;11591;-72
2022/01/05 00:41:45;;;;;;;;;21.25;20.50;;;;;3.42;100.00;100688.56;6214535;23;11492;-72
2022/01/05 00:44:41;;;;;;;;;22.75;22.75;;;;;3.35;100.00;100681.50;6214728;23;11493;-72
2022/01/05 00:47:36;;;;;;;;;17.50;17.50;;;;;3.44;100.00;100689.09;6214520;23;11518;-72
2022/01/05 00:50:32;;;;;;;;;25.25;24.75;;;;;3.46;100.00;100684.19;6214510;23;11496;-72
2022/01/05 00:53:29;;;;;;;;;19.75;19.75;;;;;3.42;100.00;100678.44;6214558;23;11524;-72
2022/01/05 00:56:25;;;;;;;;;26.00;24.75;;;;;3.54;100.00;100680.84;6214682;23;11508;-71
2022/01/05 00:59:20;;;;;;;;;24.25;24.25;;;;;3.50;100.00;100687.97;6214150;23;11573;-71
2022/01/05 01:02:16;;;;;;;;;21.75;21.75;;;;;3.41;100.00;100682.28;6214430;23;12193;-72
2022/01/05 01:05:14;;;;;;;;;20.50;19.75;;;;;3.47;100.00;100683.88;6194654;23;11465;-72
2022/01/05 01:08:10;;;;;;;;;20.75;19.75;;;;;3.44;100.00;100681.69;6213156;23;11473;-71
2022/01/05 01:11:06;;;;;;;;;22.75;19.75;;;;;3.55;100.00;100668.78;6213230;23;11475;-71
2022/01/05 01:14:02;;;;;;;;;19.75;19.75;;;;;3.58;100.00;100671.75;6214024;23;12278;-72
2022/01/05 01:16:57;;;;;;;;;12.50;12.50;;;;;3.65;100.00;100659.69;6214298;23;11480;-71
2022/01/05 01:19:53;;;;;;;;;24.00;21.00;;;;;3.57;100.00;100672.88;6215226;23;11482;-71
2022/01/05 01:22:50;;;;;;;;;23.00;21.50;;;;;3.68;100.00;100665.41;6193930;23;11487;-72
2022/01/05 01:25:46;;;;;;;;;20.25;20.25;;;;;3.69;100.00;100674.44;6215275;23;11513;-71
2022/01/05 01:28:41;;;;;;;;;16.25;16.25;;;;;3.60;100.00;100655.91;6213995;23;12158;-72
2022/01/05 01:31:37;;;;;;;;;22.25;20.75;;;;;3.62;100.00;100670.09;6213921;23;11527;-72
2022/01/05 01:34:33;;;;;;;;;22.25;20.75;;;;;3.66;100.00;100666.78;6213923;23;11602;-72
2022/01/05 01:37:28;;;;;;;;;20.50;19.25;;;;;3.79;100.00;100655.22;6213824;23;12166;-71
2022/01/05 01:40:24;;;;;;;;;14.00;13.00;;;;;3.79;100.00;100645.06;6214734;23;12162;-71
2022/01/05 01:43:19;;;;;;;;;15.75;15.75;;;;;3.80;100.00;100654.09;6209348;23;10995;-71
2022/01/05 01:46:15;;;;;;;;;13.25;12.75;;;;;3.82;100.00;100660.09;6214944;23;11554;-71
2022/01/05 01:49:11;;;;;;;;;19.25;19.25;;;;;3.84;100.00;100650.50;6215106;23;12206;-72
2022/01/05 01:52:06;;;;;;;;;16.00;15.25;;;;;3.85;100.00;100638.47;6214930;23;11697;-72
2022/01/05 01:55:03;;;;;;;;;15.00;15.00;;;;;3.88;100.00;100640.63;6215115;23;11541;-72
2022/01/05 01:57:58;;;;;;;;;19.00;19.00;;;;;3.92;100.00;100632.66;6212721;23;11535;-71
2022/01/05 02:00:54;;;;;;;;;9.75;8.25;;;;;3.88;100.00;100637.06;6214681;23;11569;-71
2022/01/05 02:03:49;;;;;;;;;14.50;14.00;;;;;3.96;100.00;100633.69;6215051;23;11475;-71
2022/01/05 02:06:45;;;;;;;;;14.75;14.25;;;;;4.00;100.00;100626.56;6214896;23;12202;-71
2022/01/05 02:09:41;;;;;;;;;16.25;16.25;;;;;3.97;100.00;100618.09;6215040;23;11519;-71
2022/01/05 02:12:37;;;;;;;;;16.50;16.50;;;;;3.94;100.00;100610.47;6213956;23;11585;-72
2022/01/05 02:15:32;;;;;;;;;17.50;17.50;;;;;4.01;100.00;100600.81;6214878;23;11532;-72
2022/01/05 02:21:25;;;;;;;;;14.00;13.50;;;;;3.95;100.00;100585.56;6214752;23;11538;-71
2022/01/05 02:24:20;;;;;;;;;20.50;20.50;;;;;3.99;100.00;100575.69;6214947;23;11503;-71
2022/01/05 02:27:16;;;;;;;;;19.75;19.75;;;;;3.83;100.00;100563.22;6214731;23;11512;-71
2022/01/05 02:30:17;;;;;;;;;19.00;17.75;;;;;3.79;100.00;100551.25;6214856;23;11617;-71
2022/01/05 02:33:13;;;;;;;;;15.50;15.50;;;;;3.93;100.00;100549.47;6215769;23;11593;-71
2022/01/05 02:36:11;;;;;;;;;19.50;15.00;;;;;3.95;100.00;100538.22;6214628;23;11547;-72
2022/01/05 02:39:07;;;;;;;;;18.75;18.50;;;;;4.05;100.00;100538.91;6212424;23;11611;-71
2022/01/05 02:42:03;;;;;;;;;16.50;16.50;;;;;4.00;100.00;100541.72;6214357;23;11489;-72
2022/01/05 02:44:58;;;;;;;;;14.25;14.25;;;;;4.12;100.00;100539.38;6214469;23;11473;-71
2022/01/05 02:47:55;;;;;;;;;16.00;16.00;;;;;4.20;100.00;100546.13;6213353;23;11503;-71
2022/01/05 02:50:55;;;;;;;;;21.25;18.75;;;;;4.11;100.00;100537.75;6212432;23;11475;-71
2022/01/05 02:53:50;;;;;;;;;15.25;15.25;;;;;4.18;100.00;100521.81;6193821;23;11488;-72
2022/01/05 02:56:46;;;;;;;;;14.25;11.75;;;;;4.16;100.00;100512.25;6213298;23;11473;-71
2022/01/05 02:59:41;;;;;;;;;12.50;12.00;;;;;4.26;100.00;100514.88;6213626;23;11490;-72
2022/01/05 03:02:37;;;;;;;;;12.00;12.00;;;;;4.27;100.00;100496.53;6213219;23;11510;-71
2022/01/05 03:05:33;;;;;;;;;15.00;15.00;;;;;4.34;100.00;100486.84;6214840;23;11507;-72
2022/01/05 03:08:29;;;;;;;;;15.75;13.75;;;;;4.49;100.00;100469.38;6193606;23;11487;-71
2022/01/05 03:11:25;;;;;;;;;8.25;8.25;;;;;4.46;100.00;100473.53;6213616;23;12253;-72
2022/01/05 03:14:21;;;;;;;;;11.00;11.00;;;;;4.54;100.00;100482.19;6214711;23;11424;-72
2022/01/05 03:17:16;;;;;;;;;10.00;10.00;;;;;4.57;100.00;100482.41;6213599;23;11428;-72
2022/01/05 03:20:13;;;;;;;;;9.50;9.50;;;;;4.58;100.00;100477.75;6213519;23;11475;-72
2022/01/05 03:23:11;;;;;;;;;6.50;6.50;;;;;4.68;100.00;100470.22;6213377;23;11466;-72
2022/01/05 03:26:06;;;;;;;;;8.25;8.25;;;;;4.71;100.00;100464.13;6212671;23;11459;-72
2022/01/05 03:29:02;;;;;;;;;9.75;9.75;;;;;4.63;100.00;100464.00;6214879;23;11527;-72
2022/01/05 03:31:58;;;;;;;;;8.25;8.25;;;;;4.65;100.00;100459.84;6213543;23;11442;-72
2022/01/05 03:34:53;;;;;;;;;11.50;10.00;;;;;4.63;100.00;100448.38;6213431;23;11441;-72
2022/01/05 03:37:49;;;;;;;;;7.75;6.75;;;;;4.80;100.00;100438.78;6212022;23;11484;-72
2022/01/05 03:40:46;;;;;;;;;4.50;4.50;;;;;4.93;100.00;100443.53;6214392;23;11479;-72
2022/01/05 03:43:42;;;;;;;;;4.75;4.75;;;;;5.11;100.00;100439.09;6213459;23;11524;-72
2022/01/05 03:46:37;;;;;;;;;5.25;5.25;;;;;5.22;99.69;100438.66;6193379;23;11482;-72
2022/01/05 03:49:33;;;;;;;;;6.00;6.00;;;;;5.20;98.96;100438.09;6213287;23;11468;-72
2022/01/05 03:52:29;;;;;;;;;10.75;10.75;;;;;5.18;99.16;100447.75;6213211;23;12164;-72
2022/01/05 03:55:24;;;;;;;;;7.25;7.25;;;;;5.22;99.06;100449.59;6212195;23;11494;-72
2022/01/05 03:58:20;;;;;;;;;5.00;5.00;;;;;5.23;99.10;100453.97;6214348;23;11510;-72
2022/01/05 04:01:15;;;;;;;;;8.50;8.50;;;;;5.29;98.84;100449.19;6213429;23;11431;-72
2022/01/05 04:04:11;;;;;;;;;4.00;4.00;;;;;5.36;98.87;100454.28;6194917;23;11456;-72
2022/01/05 04:07:06;;;;;;;;;6.50;6.50;;;;;5.41;98.52;100466.00;6214762;23;11552;-74
2022/01/05 04:10:03;;;;;;;;;8.25;8.25;;;;;5.36;98.23;100468.81;6215106;23;12153;-71
2022/01/05 04:12:59;;;;;;;;;6.50;6.50;;;;;5.37;98.86;100470.47;6214940;23;11531;-72
2022/01/05 04:15:55;;;;;;;;;3.50;3.50;;;;;5.33;99.00;100463.13;6215027;23;11485;-72
2022/01/05 04:18:50;;;;;;;;;9.50;7.25;;;;;5.50;98.68;100463.34;6214906;23;12137;-71
2022/01/05 04:21:46;;;;;;;;;6.50;6.50;;;;;5.35;98.95;100449.91;6215991;23;11506;-72
2022/01/05 04:24:41;;;;;;;;;1.50;1.50;;;;;5.41;98.95;100444.06;6214961;23;11459;-72
2022/01/05 04:27:37;;;;;;;;;6.75;6.75;;;;;5.42;99.18;100451.16;6214786;23;12170;-72
2022/01/05 04:30:33;;;;;;;;;5.25;4.75;;;;;5.41;98.26;100444.06;6214849;23;11425;-72
2022/01/05 04:33:28;;;;;;;;;6.00;6.00;;;;;5.32;98.97;100440.38;6213556;23;11465;-71
2022/01/05 04:36:24;;;;;;;;;7.00;7.00;;;;;5.31;99.15;100444.25;6213753;23;11450;-72
2022/01/05 04:39:19;;;;;;;;;9.00;9.00;;;;;5.40;99.08;100420.47;6214820;23;11617;-72
2022/01/05 04:42:15;;;;;;;;;5.00;5.00;;;;;5.35;99.09;100417.00;6214463;23;11514;-71
2022/01/05 04:45:11;;;;;;;;;8.25;8.25;;;;;5.29;98.97;100428.09;6214383;23;11456;-72
2022/01/05 04:48:06;;;;;;;;;8.00;8.00;;;;;5.27;98.81;100438.53;6213611;23;12299;-72
2022/01/05 04:51:02;;;;;;;;;5.00;5.00;;;;;5.32;99.37;100434.91;6214428;23;11420;-72
2022/01/05 04:53:58;;;;;;;;;7.25;7.25;;;;;5.28;98.69;100423.69;6214112;23;11475;-72
2022/01/05 04:56:53;;;;;;;;;8.00;8.00;;;;;5.23;98.73;100425.75;6194715;23;11625;-72
2022/01/05 04:59:49;;;;;;;;;5.50;5.50;;;;;5.06;99.10;100404.38;6214563;23;11483;-72
2022/01/05 05:02:44;;;;;;;;;8.00;8.00;;;;;5.06;99.35;100404.38;6215453;23;11455;-72
2022/01/05 05:05:40;;;;;;;;;5.25;5.25;;;;;5.09;99.67;100405.72;6194893;23;11438;-73
2022/01/05 05:08:35;;;;;;;;;7.75;7.75;;;;;5.11;98.63;100408.94;6214220;23;11452;-72
2022/01/05 05:11:31;;;;;;;;;8.25;8.25;;;;;5.02;98.46;100393.19;6214015;23;11430;-73
2022/01/05 05:14:27;;;;;;;;;7.00;7.00;;;;;4.87;98.64;100378.94;6213886;23;11482;-72
2022/01/05 05:17:22;;;;;;;;;6.00;6.00;;;;;5.01;97.58;100385.28;6214315;23;12175;-72
2022/01/05 05:20:18;;;;;;;;;2.50;2.50;;;;;5.11;96.14;100398.78;6212944;23;11502;-72
2022/01/05 05:23:14;;;;;;;;;3.75;3.75;;;;;4.87;95.48;100398.13;6213159;23;11433;-73
2022/01/05 05:26:09;;;;;;;;;5.00;5.00;;;;;4.90;95.25;100397.53;6214549;23;11481;-72
2022/01/05 05:29:05;;;;;;;;;5.00;5.00;;;;;5.02;93.86;100395.94;6213816;23;11525;-72
2022/01/05 05:32:00;;;;;;;;;6.75;6.75;;;;;5.06;93.16;100387.09;6213527;23;11421;-72
2022/01/05 05:34:56;;;;;;;;;7.50;6.50;;;;;5.07;93.11;100394.25;6212991;23;12181;-73
2022/01/05 05:37:52;;;;;;;;;4.00;4.00;;;;;4.98;92.56;100399.56;6214147;23;11553;-73
2022/01/05 05:40:48;;;;;;;;;8.00;8.00;;;;;5.14;91.93;100405.63;6213168;23;11450;-73
2022/01/05 05:43:44;;;;;;;;;5.75;5.75;;;;;5.10;91.24;100388.13;6213840;23;11538;-73
2022/01/05 05:46:41;;;;;;;;;0.00;0.00;;;;;5.15;91.09;100377.09;6214018;23;11446;-73
2022/01/05 05:49:37;;;;;;;;;4.00;4.00;;;;;5.25;93.78;100374.97;6214023;23;11538;-73
2022/01/05 05:52:33;;;;;;;;;1.75;1.75;;;;;5.21;90.97;100353.94;6213871;23;11431;-73
2022/01/05 05:55:00;;;;;;;;;2.00;2.00;;;;;5.15;90.32;100349.69;6197309;23;11444;-73
2022/01/05 05:57:43;;;;;;;;;4.50;4.50;;;;;5.10;89.65;100344.28;6223732;23;12140;-73
2022/01/05 06:00:11;;;;;;;;;4.75;4.75;;;;;5.16;89.67;100360.34;6223046;23;11443;-73
2022/01/05 06:03:07;;;;;;;;;7.00;7.00;;;;;5.16;89.20;100387.75;6212967;23;11533;-73
2022/01/05 06:05:48;;;;;;;;;5.75;5.75;;;;;5.16;89.49;100382.25;6214787;23;11543;-73
2022/01/05 06:08:44;;;;;;;;;3.25;3.25;;;;;5.04;89.99;100381.94;6213546;23;12160;-73
2022/01/05 06:11:39;;;;;;;;;2.75;2.75;;;;;5.15;89.47;100386.13;6214540;23;12143;-72
2022/01/05 06:14:35;;;;;;;;;2.00;2.00;;;;;5.33;88.70;100400.06;6213255;23;12277;-72
2022/01/05 06:17:03;;;;;;;;;4.00;4.00;;;;;5.23;88.61;100404.63;6214970;23;11446;-72
2022/01/05 06:19:45;;;;;;;;;2.00;2.00;;;;;5.21;89.31;100392.31;6213654;23;11531;-73
2022/01/05 06:22:41;;;;;;;;;4.00;4.00;;;;;5.21;87.96;100384.09;6214339;23;11430;-72
2022/01/05 06:25:37;;;;;;;;;2.25;2.25;;;;;5.30;87.66;100363.91;6211941;23;11460;-71
2022/01/05 06:28:11;;;;;;;;;1.50;1.50;;;;;5.28;87.79;100346.94;6214579;23;11416;-74
2022/01/05 06:30:40;;;;;;;;;2.00;2.00;;;;;5.33;87.93;100353.44;6196926;23;11523;-73
2022/01/05 06:33:08;;;;;;;;;2.00;2.00;;;;;5.31;88.00;100334.56;6222696;23;11463;-72
2022/01/05 06:35:58;;;;;;;;;2.00;2.00;;;;;5.33;87.53;100331.50;6214807;23;11420;-73
2022/01/05 06:38:26;;;;;;;;;3.50;3.50;;;;;5.30;87.81;100332.94;6223076;23;11458;-73
2022/01/05 06:41:21;;;;;;;;;3.50;3.50;;;;;5.40;87.49;100334.66;6212168;23;11528;-74
2022/01/05 06:44:17;;;;;;;;;3.25;3.25;;;;;5.34;87.22;100338.59;6212920;23;11485;-73
2022/01/05 06:46:53;;;;;;;;;3.50;3.50;;;;;5.38;87.99;100339.66;6223225;23;11369;-72
2022/01/05 06:49:23;;;;;;;;;0.25;0.25;;;;;5.43;87.45;100345.00;6188888;23;11459;-73
2022/01/05 06:52:19;;;;;;;;;2.00;2.00;;;;;5.32;87.42;100351.81;6212476;23;11406;-73
2022/01/05 06:55:14;;;;;;;;;3.50;3.50;;;;;5.48;87.92;100342.16;6212960;23;11451;-74
2022/01/05 06:58:10;;;;;;;;;3.25;3.25;;;;;5.37;88.45;100347.06;6213303;23;11379;-73
2022/01/05 07:00:38;;;;;;;;;2.00;2.00;;;;;5.51;88.30;100344.28;6222022;23;11416;-73
2022/01/05 07:03:33;;;;;;;;;2.00;2.00;;;;;5.53;88.61;100342.06;6212951;23;11372;-73
2022/01/05 07:06:29;;;;;;;;;2.25;2.25;;;;;5.64;88.54;100354.44;6213062;23;11401;-73
2022/01/05 07:09:25;;;;;;;;;4.50;4.50;;;;;5.58;89.10;100352.94;6213441;23;11404;-72
2022/01/05 07:12:20;;;;;;;;;2.75;2.75;;;;;5.49;89.46;100346.53;6212295;23;11415;-73
2022/01/05 07:15:16;;;;;;;;;2.00;2.00;;;;;5.62;89.23;100345.72;6212758;23;12239;-73
2022/01/05 07:17:45;;;;;;;;;3.00;2.25;;;;;5.66;89.16;100343.16;6197334;23;12168;-72
2022/01/05 07:20:40;;;;;;;;;1.75;1.75;;;;;5.63;89.32;100347.34;6210445;23;11400;-73
2022/01/05 07:23:36;;;;;;;;;2.00;2.00;;;;;5.78;88.81;100335.25;6212418;23;11375;-73
2022/01/05 07:26:32;;;;;;;;;2.00;2.00;;;;;5.90;88.99;100342.94;6214227;23;11420;-72
2022/01/05 07:29:27;;;;;;;;;4.00;4.00;;;;;5.67;89.95;100344.78;6212142;23;11426;-72
2022/01/05 07:32:08;;;;;;;;;3.50;2.00;;;;;5.71;88.95;100334.84;6223464;23;11384;-73
2022/01/05 07:35:05;;;;;;;;;3.50;3.50;;;;;5.79;88.94;100323.94;6212997;23;12286;-73
2022/01/05 07:38:00;;;;;;;;;2.00;2.00;;;;;5.83;88.39;100324.16;6214684;23;11488;-73
2022/01/05 07:40:56;;;;;;;;;1.50;1.50;;;;;5.88;89.03;100331.47;6212136;23;11401;-74
2022/01/05 07:43:51;;;;;;;;;2.75;2.75;;;;;5.86;89.32;100332.56;6215701;23;11486;-73
2022/01/05 07:46:34;;;;;;;;;1.50;1.50;;;;;5.92;88.72;100338.00;6245714;23;11419;-73
2022/01/05 07:49:30;;;;;;;;;4.00;4.00;;;;;6.11;87.91;100327.66;6216136;23;11445;-73
2022/01/05 07:52:26;;;;;;;;;2.75;2.75;;;;;6.08;88.73;100323.63;6213785;23;11437;-73
2022/01/05 07:55:21;;;;;;;;;2.00;2.00;;;;;6.05;88.25;100313.22;6213187;23;11405;-73
2022/01/05 07:58:19;;;;;;;;;3.50;3.50;;;;;5.95;88.38;100302.50;6215815;23;11510;-72
2022/01/05 08:00:46;;;;;;;;;3.00;3.00;;;;;6.03;88.36;100292.72;6224996;23;11442;-71
2022/01/05 08:03:42;;;;;;;;;7.50;7.25;;;;;6.06;88.34;100279.19;6216171;23;11396;-72
2022/01/05 08:06:37;;;;;;;;;5.75;5.75;;;;;6.13;88.60;100287.81;6216041;23;11439;-72
2022/01/05 08:09:33;;;;;;;;;3.50;3.50;;;;;6.22;88.05;100295.31;6216368;23;12106;-72
2022/01/05 08:12:29;;;;;;;;;2.50;2.50;;;;;6.10;88.23;100287.59;6232923;23;11397;-72
2022/01/05 08:15:25;;;;;;;;;3.25;3.25;;;;;6.01;88.88;100300.44;6217079;23;12116;-72
2022/01/05 08:18:21;;;;;;;;;4.50;4.50;;;;;6.07;88.71;100293.72;6213923;23;11422;-72
2022/01/05 08:24:09;;;;;;;;;2.25;2.25;;;;;6.21;87.78;100308.22;6194717;23;11441;-71
2022/01/05 08:26:51;;;;;;;;;1.50;1.50;;;;;6.15;87.93;100289.44;6184673;23;11457;-71
2022/01/05 08:29:19;;;;;;;;;3.50;3.50;;;;;6.16;87.87;100278.13;6194180;23;11478;-71
2022/01/05 08:32:15;;;;;;;;;3.00;3.00;;;;;6.27;87.41;100279.50;6184107;23;11603;-70
2022/01/05 08:35:11;;;;;;;;;2.50;2.50;;;;;6.17;87.64;100278.94;6165956;23;11541;-71
2022/01/05 08:38:07;;;;;;;;;3.00;3.00;;;;;6.12;88.21;100272.44;6184507;23;11486;-70
2022/01/05 08:40:36;;;;;;;;;4.25;4.25;;;;;6.16;87.90;100272.63;6192937;23;12258;-70
2022/01/05 08:43:06;;;;;;;;;2.00;2.00;;;;;6.14;88.00;100277.63;6193922;23;11464;-69
2022/01/05 08:45:34;;;;;;;;;4.00;4.00;;;;;6.16;88.60;100280.06;6192988;23;11478;-70
2022/01/05 08:48:30;;;;;;;;;3.50;3.50;;;;;6.11;89.32;100279.06;6183859;23;12210;-70
2022/01/05 08:51:26;;;;;;;;;6.00;6.00;;;;;6.25;89.01;100287.25;6184308;23;11458;-70
2022/01/05 08:54:21;;;;;;;;;10.50;10.50;;;;;6.29;89.21;100290.19;6165571;23;11477;-71
2022/01/05 08:57:17;;;;;;;;;10.50;10.25;;;;;6.36;88.64;100293.28;6184297;23;11477;-71
2022/01/05 09:00:14;;;;;;;;;14.75;14.50;;;;;6.38;89.04;100282.81;6184303;23;11524;-71
2022/01/05 09:03:13;;;;;;;;;19.00;18.50;;;;;6.48;89.10;100287.25;6164009;23;11527;-72
2022/01/05 09:05:57;;;;;;;;;13.25;13.25;;;;;6.46;89.49;100298.56;6193723;23;12283;-71
2022/01/05 09:08:24;;;;;;;;;0.50;0.00;;;;;6.53;89.63;100287.13;6194018;23;11601;-72
2022/01/05 09:11:20;;;;;;;;;8.25;6.25;;;;;6.59;89.21;100288.59;6183740;23;11455;-72
2022/01/05 09:14:15;;;;;;;;;7.00;7.00;;;;;6.64;89.02;100294.78;6184319;23;12186;-72
2022/01/05 09:17:11;;;;;;;;;9.75;9.75;;;;;6.68;89.24;100295.78;6165463;23;11497;-72
2022/01/05 09:20:07;;;;;;;;;11.00;11.00;;;;;6.62;89.61;100285.22;6184090;23;11550;-71
2022/01/05 09:22:38;;;;;;;;;11.50;9.00;;;;;6.65;89.68;100281.84;6190296;23;11416;-72
2022/01/05 09:25:33;;;;;;;;;10.00;9.75;;;;;6.68;90.06;100278.50;6183967;23;11499;-71
2022/01/05 09:28:29;;;;;;;;;7.75;7.75;;;;;6.64;90.29;100275.53;6184107;23;11512;-72
2022/01/05 09:31:25;;;;;;;;;11.50;11.50;;;;;6.72;90.67;100278.66;6184163;23;11449;-71
2022/01/05 09:34:03;;;;;;;;;7.75;7.75;;;;;6.77;90.71;100281.28;6168500;23;11442;-71
2022/01/05 09:37:07;;;;;;;;;8.25;8.25;;;;;6.84;90.54;100279.69;6183914;23;11416;-71
2022/01/05 09:43:18;;;;;;;;;9.75;9.75;;;;;7.01;90.71;100280.91;6183865;23;11419;-71
2022/01/05 09:46:39;;;;;;;;;8.00;8.00;;;;;7.02;91.34;100282.53;6183668;23;12112;-71
2022/01/05 09:49:42;;;;;;;;;11.50;10.00;;;;;7.02;90.88;100286.09;6184401;23;11421;-70
2022/01/05 09:52:42;;;;;;;;;8.00;8.00;;;;;7.01;91.74;100275.41;6183756;23;11454;-69
2022/01/05 09:55:11;;;;;;;;;10.50;10.50;;;;;6.99;91.37;100274.94;6184840;23;11413;-71
2022/01/05 09:57:42;;;;;;;;;8.00;8.00;;;;;7.06;91.49;100270.59;6194043;23;11423;-72
2022/01/05 10:00:13;;;;;;;;;18.00;18.00;;;;;7.16;91.41;100266.75;6184251;23;11469;-70
2022/01/05 10:02:43;;;;;;;;;8.00;7.75;;;;;7.18;91.50;100267.22;6167760;23;11432;-70
2022/01/05 10:05:13;;;;;;;;;14.75;14.75;;;;;7.23;91.45;100272.59;6192228;23;11423;-70
2022/01/05 10:07:42;;;;;;;;;9.00;9.00;;;;;7.17;92.31;100266.41;6193848;23;11488;-71
2022/01/05 10:10:37;;;;;;;;;15.50;15.50;;;;;7.20;91.88;100259.44;6182899;23;11113;-70
2022/01/05 10:13:08;;;;;;;;;11.75;11.00;;;;;7.31;91.57;100260.81;6193380;23;12191;-70
2022/01/05 10:15:36;;;;;;;;;14.50;12.50;;;;;7.35;91.81;100250.75;6193266;23;11456;-70
2022/01/05 10:18:17;;;;;;;;;13.00;13.00;;;;;7.37;91.76;100248.53;6193301;23;11409;-70
2022/01/05 10:20:55;;;;;;;;;13.50;13.00;;;;;7.41;92.05;100249.50;6193769;23;11493;-73
2022/01/05 10:23:52;;;;;;;;;20.00;17.50;;;;;7.39;91.93;100243.50;6153332;23;11524;-70
2022/01/05 10:26:28;;;;;;;;;14.50;14.50;;;;;7.44;91.80;100240.59;6163618;23;11505;-70
2022/01/05 10:29:23;;;;;;;;;56.25;43.75;;;;;7.35;91.43;100231.50;6155209;23;11562;-71
2022/01/05 10:32:07;;;;;;;;;93.00;64.67;;;;;7.38;92.14;100225.38;6154524;23;12307;-71
2022/01/05 10:34:39;;;;;;;;;49.25;42.50;;;;;7.27;91.53;100224.03;6163494;23;11624;-70
2022/01/05 10:37:08;;;;;;;;;39.00;36.50;;;;;7.30;91.47;100226.19;6163560;23;11699;-71
2022/01/05 10:39:39;;;;;;;;;26.25;26.25;;;;;7.35;91.20;100212.25;6153887;23;12290;-71
2022/01/05 10:42:10;;;;;;;;;35.75;32.00;;;;;7.35;91.24;100215.00;6162953;23;11511;-71
2022/01/05 10:44:44;;;;;;;;;26.75;26.75;;;;;7.39;91.01;100215.19;6163340;23;11547;-71
2022/01/05 10:47:15;;;;;;;;;15.75;14.75;;;;;7.34;91.85;100207.88;6163614;23;11521;-72
2022/01/05 10:49:44;;;;;;;;;16.75;16.75;;;;;7.34;91.60;100202.38;6128617;23;11532;-72
2022/01/05 10:52:42;;;;;;;;;19.00;17.00;;;;;7.29;92.16;100190.75;6152171;23;12295;-72
2022/01/05 10:55:41;;;;;;;;;12.75;12.75;;;;;7.32;92.38;100193.66;6153495;23;11539;-71
2022/01/05 10:58:45;;;;;;;;;15.25;15.25;;;;;7.36;92.44;100180.03;6153603;23;11561;-71
2022/01/05 11:01:42;;;;;;;;;11.50;11.50;;;;;7.37;92.74;100171.50;6153839;23;11614;-72
2022/01/05 11:04:37;;;;;;;;;11.25;11.25;;;;;7.36;93.46;100178.13;6154690;23;11990;-71
2022/01/05 11:07:24;;;;;;;;;17.25;17.25;;;;;7.37;93.55;100166.00;6162345;23;11504;-72
2022/01/05 11:10:07;;;;;;;;;17.25;16.50;;;;;7.46;93.83;100160.50;6163114;23;11597;-72
2022/01/05 11:13:18;;;;;;;;;14.75;14.75;;;;;7.42;94.47;100160.31;6154545;23;11274;-70
2022/01/05 11:16:05;;;;;;;;;20.25;19.75;;;;;7.44;94.65;100158.06;6155562;23;11553;-70
2022/01/05 11:18:48;;;;;;;;;19.75;19.75;;;;;7.58;94.92;100165.34;6156614;23;12245;-72
2022/01/05 11:22:17;;;;;;;;;19.75;19.00;;;;;7.64;95.07;100151.09;6159203;23;11450;-73
2022/01/05 11:24:46;;;;;;;;;33.00;28.75;;;;;7.69;95.21;100174.91;6195376;23;11497;-72
2022/01/05 11:27:42;;;;;;;;;28.25;23.25;;;;;7.81;94.85;100186.06;6185085;23;11454;-73
2022/01/05 11:30:23;;;;;;;;;35.50;33.75;;;;;7.82;94.96;100173.94;6187116;23;11473;-72
2022/01/05 11:33:20;;;;;;;;;30.25;30.00;;;;;7.86;94.65;100174.91;6184890;23;11488;-73
2022/01/05 11:36:01;;;;;;;;;26.00;25.75;;;;;7.85;94.68;100181.53;6185732;23;11525;-73
2022/01/05 11:38:57;;;;;;;;;30.25;30.25;;;;;7.88;94.38;100183.63;6184407;23;11492;-73
2022/01/05 11:41:54;;;;;;;;;34.50;34.50;;;;;7.81;94.95;100194.31;6185660;23;11514;-73
2022/01/05 11:44:26;;;;;;;;;25.25;25.25;;;;;7.84;94.42;100201.16;6195292;23;11462;-74
2022/01/05 11:46:54;;;;;;;;;22.75;22.75;;;;;7.84;94.77;100199.19;6194826;23;11489;-72
2022/01/05 11:49:52;;;;;;;;;16.50;16.50;;;;;7.87;95.51;100198.53;6185448;23;12236;-73
2022/01/05 11:53:06;;;;;;;;;22.75;22.75;;;;;7.70;94.84;100184.78;6184342;23;11442;-71
2022/01/05 11:55:59;;;;;;;;;22.25;21.75;;;;;7.69;95.21;100167.47;6192367;23;11446;-72
2022/01/05 11:58:33;;;;;;;;;27.25;26.50;;;;;7.64;95.57;100170.38;6186092;23;11451;-74
2022/01/05 12:01:18;;;;;;;;;25.00;24.75;;;;;7.69;95.44;100186.72;6185686;23;11516;-72
2022/01/05 12:04:14;;;;;;;;;27.25;26.25;;;;;7.68;95.54;100176.84;6185048;23;11449;-73
2022/01/05 12:07:10;;;;;;;;;30.75;28.50;;;;;7.69;96.18;100177.66;6184722;23;11542;-76
2022/01/05 12:10:13;;;;;;;;;32.25;31.25;;;;;7.69;96.07;100180.41;6163978;23;11523;-73
2022/01/05 12:13:02;;;;;;;;;35.25;28.25;;;;;7.73;95.76;100179.44;6194034;23;11426;-72
2022/01/05 12:15:39;;;;;;;;;27.75;27.50;;;;;7.84;95.50;100170.84;6193063;23;11475;-71
2022/01/05 12:18:30;;;;;;;;;32.25;30.75;;;;;7.71;96.01;100159.69;6193724;23;12434;-71
2022/01/05 12:20:58;;;;;;;;;42.00;39.75;;;;;7.82;96.20;100162.94;6185946;23;11581;-71
2022/01/05 12:23:31;;;;;;;;;34.25;33.00;;;;;7.81;96.02;100156.59;6185927;23;11519;-71
2022/01/05 12:26:02;;;;;;;;;34.75;33.75;;;;;7.85;96.35;100162.28;6185549;23;11479;-71
2022/01/05 12:28:58;;;;;;;;;49.00;41.25;;;;;7.77;96.56;100172.16;6184727;23;11544;-72
2022/01/05 12:31:56;;;;;;;;;32.25;31.00;;;;;7.90;96.96;100175.03;6164667;23;11448;-71
2022/01/05 12:34:53;;;;;;;;;47.00;40.75;;;;;7.80;96.45;100173.44;6194908;23;11467;-72
2022/01/05 12:38:06;;;;;;;;;36.75;33.75;;;;;7.81;96.81;100166.78;6164725;23;11619;-71
2022/01/05 12:41:22;;;;;;;;;35.75;35.75;;;;;7.72;96.96;100164.06;6184966;23;11463;-71
2022/01/05 12:43:52;;;;;;;;;38.50;37.75;;;;;7.75;96.84;100165.38;6167616;23;11501;-71
2022/01/05 12:46:39;;;;;;;;;36.00;36.00;;;;;7.71;97.45;100154.19;6185853;23;11532;-71
2022/01/05 12:49:32;;;;;;;;;42.75;39.25;;;;;7.75;97.44;100155.16;6184259;23;11554;-71
2022/01/05 12:52:08;;;;;;;;;45.25;41.25;;;;;7.85;97.18;100159.53;6194376;23;11514;-71
2022/01/05 12:55:04;;;;;;;;;37.25;36.75;;;;;7.86;97.38;100163.06;6163507;23;11522;-71
2022/01/05 12:58:00;;;;;;;;;36.50;35.50;;;;;7.89;97.56;100167.91;6164170;23;11537;-73
2022/01/05 13:00:28;;;;;;;;;36.75;35.25;;;;;7.83;97.88;100161.78;6193938;23;11486;-72
2022/01/05 13:03:32;;;;;;;;;31.75;31.25;;;;;7.94;98.07;100170.50;6185080;23;11454;-72
2022/01/05 13:06:15;;;;;;;;;50.25;43.25;;;;;7.84;98.73;100168.09;6194191;23;11433;-71
2022/01/05 13:09:23;;;;;;;;;44.75;41.00;;;;;7.84;98.86;100166.16;6184042;23;11532;-72
2022/01/05 13:12:28;;;;;;;;;36.25;32.25;;;;;7.75;99.94;100163.41;6185007;23;11526;-72
2022/01/05 13:15:04;;;;;;;;;38.75;36.50;;;;;7.78;100.00;100159.19;6192499;23;11439;-72
2022/01/05 13:18:00;;;;;;;;;34.50;33.25;;;;;7.71;100.00;100164.38;6183773;23;11496;-71
2022/01/05 13:20:56;;;;;;;;;38.25;37.00;;;;;7.81;100.00;100162.09;6183146;23;11433;-71